createdAt,value
2022-11-28T00:01:09.873Z,18.88
2022-11-28T00:03:36.259Z,21.05
2022-11-28T00:06:07.408Z,17.33
2022-11-28T00:08:35.218Z,18.00
2022-11-28T00:11:06.621Z,23.63
2022-11-28T00:13:34.282Z,15.55
2022-11-28T00:16:02.645Z,16.35
2022-11-28T00:18:29.486Z,17.85
2022-11-28T00:21:01.060Z,21.33
2022-11-28T00:23:28.093Z,16.42
2022-11-28T00:25:59.271Z,16.88
2022-11-28T00:28:25.722Z,16.13
2022-11-28T00:30:52.225Z,16.88
2022-11-28T00:33:18.659Z,18.13
2022-11-28T00:35:45.015Z,14.45
2022-11-28T00:38:11.417Z,21.90
2022-11-28T00:40:37.909Z,18.13
2022-11-28T00:43:04.382Z,15.40
2022-11-28T00:45:31.037Z,15.90
2022-11-28T00:47:57.496Z,15.75
2022-11-28T00:50:25.146Z,16.00
2022-11-28T00:52:51.669Z,17.25
2022-11-28T00:55:18.101Z,16.17
2022-11-28T00:57:44.527Z,16.45
2022-11-28T01:00:11.381Z,19.55
2022-11-28T01:02:37.879Z,16.13
2022-11-28T01:05:04.598Z,15.13
2022-11-28T01:07:33.128Z,16.50
2022-11-28T01:09:59.562Z,19.90
2022-11-28T01:12:25.936Z,14.00
2022-11-28T01:14:53.503Z,18.08
2022-11-28T01:17:19.839Z,17.80
2022-11-28T01:19:46.305Z,16.83
2022-11-28T01:22:12.801Z,18.85
2022-11-28T01:24:39.434Z,17.75
2022-11-28T01:27:06.218Z,14.77
2022-11-28T01:29:32.664Z,15.10
2022-11-28T01:32:00.051Z,16.25
2022-11-28T01:34:26.828Z,20.48
2022-11-28T01:36:53.166Z,15.57
2022-11-28T01:39:20.904Z,14.38
2022-11-28T01:41:47.666Z,17.15
2022-11-28T01:44:13.965Z,16.33
2022-11-28T01:46:40.642Z,15.98
2022-11-28T01:49:17.572Z,13.02
2022-11-28T01:52:00.906Z,14.55
2022-11-28T01:54:29.529Z,15.30
2022-11-28T01:57:02.902Z,15.48
2022-11-28T01:59:35.243Z,15.65
2022-11-28T02:02:06.309Z,15.40
2022-11-28T02:04:34.354Z,14.93
2022-11-28T02:07:00.934Z,13.70
2022-11-28T02:09:27.429Z,19.02
2022-11-28T02:12:21.623Z,16.75
2022-11-28T02:14:53.813Z,18.02
2022-11-28T02:17:43.930Z,16.05
2022-11-28T02:20:28.372Z,14.85
2022-11-28T02:22:59.538Z,14.68
2022-11-28T02:26:07.513Z,17.17
2022-11-28T02:29:19.087Z,17.17
2022-11-28T02:32:15.211Z,16.58
2022-11-28T02:35:16.729Z,14.52
2022-11-28T02:38:01.723Z,17.08
2022-11-28T02:40:37.690Z,15.25
2022-11-28T02:43:08.124Z,13.57
2022-11-28T02:45:43.552Z,14.57
2022-11-28T02:48:24.224Z,16.92
2022-11-28T02:51:01.210Z,15.82
2022-11-28T02:53:31.970Z,13.02
2022-11-28T02:55:59.691Z,15.88
2022-11-28T02:58:26.511Z,15.02
2022-11-28T03:00:53.262Z,17.65
2022-11-28T03:03:41.128Z,13.93
2022-11-28T03:06:22.921Z,15.95
2022-11-28T03:09:18.177Z,11.73
2022-11-28T03:12:15.500Z,15.25
2022-11-28T03:14:54.849Z,14.38
2022-11-28T03:17:25.056Z,11.48
2022-11-28T03:20:20.844Z,14.40
2022-11-28T03:23:02.862Z,13.85
2022-11-28T03:25:47.623Z,16.70
2022-11-28T03:28:23.072Z,11.73
2022-11-28T03:30:54.855Z,15.93
2022-11-28T03:33:25.271Z,11.80
2022-11-28T03:35:58.150Z,13.02
2022-11-28T03:38:34.283Z,16.88
2022-11-28T03:41:06.987Z,13.05
2022-11-28T03:43:40.182Z,12.95
2022-11-28T03:46:11.568Z,11.13
2022-11-28T03:48:54.505Z,15.77
2022-11-28T03:51:29.073Z,12.10
2022-11-28T03:54:08.076Z,15.05
2022-11-28T03:56:45.743Z,16.27
2022-11-28T03:59:25.618Z,13.13
2022-11-28T04:01:54.891Z,15.57
2022-11-28T04:04:47.524Z,13.75
2022-11-28T04:07:23.461Z,13.15
2022-11-28T04:10:00.443Z,15.00
2022-11-28T04:12:39.954Z,11.88
2022-11-28T04:15:11.948Z,13.77
2022-11-28T04:17:49.666Z,13.20
2022-11-28T04:20:27.855Z,13.52
2022-11-28T04:23:00.923Z,13.60
2022-11-28T04:25:29.766Z,11.98
2022-11-28T04:28:01.437Z,16.63
2022-11-28T04:30:28.015Z,15.88
2022-11-28T04:32:59.383Z,15.30
2022-11-28T04:35:32.457Z,14.50
2022-11-28T04:38:01.542Z,14.13
2022-11-28T04:40:31.770Z,13.85
2022-11-28T04:43:02.965Z,14.18
2022-11-28T04:45:34.313Z,14.52
2022-11-28T04:48:01.753Z,17.08
2022-11-28T04:50:41.099Z,16.20
2022-11-28T04:53:19.451Z,12.82
2022-11-28T04:55:57.938Z,13.27
2022-11-28T04:58:43.418Z,14.90
2022-11-28T05:01:15.574Z,16.27
2022-11-28T05:03:42.980Z,16.02
2022-11-28T05:06:09.696Z,14.65
2022-11-28T05:08:36.151Z,15.57
2022-11-28T05:11:02.657Z,17.20
2022-11-28T05:13:29.044Z,13.40
2022-11-28T05:15:55.436Z,15.70
2022-11-28T05:18:21.913Z,14.88
2022-11-28T05:20:48.525Z,13.52
2022-11-28T05:23:14.893Z,12.05
2022-11-28T05:25:41.324Z,14.63
2022-11-28T05:28:08.644Z,17.63
2022-11-28T05:30:35.080Z,17.70
2022-11-28T05:33:02.051Z,13.65
2022-11-28T05:35:28.478Z,16.55
2022-11-28T05:37:54.927Z,14.60
2022-11-28T05:40:21.263Z,13.80
2022-11-28T05:42:47.676Z,15.88
2022-11-28T05:45:14.132Z,14.95
2022-11-28T05:47:40.534Z,17.40
2022-11-28T05:50:08.126Z,20.42
2022-11-28T05:52:34.534Z,15.88
2022-11-28T05:55:01.547Z,14.25
2022-11-28T05:57:29.893Z,18.85
2022-11-28T05:59:56.711Z,19.20
2022-11-28T06:02:23.412Z,19.02
2022-11-28T06:04:49.912Z,15.30
2022-11-28T06:07:16.424Z,14.90
2022-11-28T06:09:43.166Z,15.23
2022-11-28T06:12:09.666Z,17.08
2022-11-28T06:14:36.142Z,15.43
2022-11-28T06:17:02.564Z,16.63
2022-11-28T06:19:29.106Z,17.25
2022-11-28T06:21:56.381Z,17.85
2022-11-28T06:24:22.962Z,14.15
2022-11-28T06:26:49.311Z,16.63
2022-11-28T06:29:15.843Z,16.33
2022-11-28T06:31:42.261Z,17.35
2022-11-28T06:34:11.704Z,17.58
2022-11-28T06:36:38.133Z,15.25
2022-11-28T06:39:05.186Z,16.73
2022-11-28T06:41:31.621Z,15.20
2022-11-28T06:43:58.005Z,17.85
2022-11-28T06:46:24.449Z,20.38
2022-11-28T06:48:52.195Z,15.65
2022-11-28T06:51:19.700Z,16.73
2022-11-28T06:53:46.055Z,13.90
2022-11-28T06:56:16.563Z,16.35
2022-11-28T06:58:44.031Z,18.33
2022-11-28T07:01:14.070Z,16.08
2022-11-28T07:03:41.092Z,20.10
2022-11-28T07:06:08.803Z,17.27
2022-11-28T07:08:35.511Z,19.00
2022-11-28T07:11:15.848Z,16.63
2022-11-28T07:13:43.639Z,15.18
2022-11-28T07:16:27.497Z,18.25
2022-11-28T07:18:56.871Z,20.98
2022-11-28T07:21:24.017Z,16.83
2022-11-28T07:23:51.093Z,18.55
2022-11-28T07:26:19.191Z,18.90
2022-11-28T07:28:46.428Z,18.20
2022-11-28T07:31:18.737Z,17.85
2022-11-28T07:33:47.695Z,18.30
2022-11-28T07:36:20.450Z,20.98
2022-11-28T07:38:48.672Z,18.45
2022-11-28T07:41:15.961Z,17.55
2022-11-28T07:43:44.120Z,17.92
2022-11-28T07:46:13.830Z,21.00
2022-11-28T07:48:40.719Z,16.77
2022-11-28T07:51:12.030Z,18.02
2022-11-28T07:53:39.611Z,21.42
2022-11-28T07:56:08.914Z,22.73
2022-11-28T07:58:36.470Z,17.88
2022-11-28T08:01:23.896Z,18.17
2022-11-28T08:03:52.267Z,21.85
2022-11-28T08:06:21.978Z,18.20
2022-11-28T08:08:49.449Z,22.65
2022-11-28T08:11:17.242Z,20.42
2022-11-28T08:13:44.572Z,17.85
2022-11-28T08:16:16.940Z,21.08
2022-11-28T08:18:44.307Z,22.35
2022-11-28T08:21:12.313Z,19.88
2022-11-28T08:23:39.832Z,20.38
2022-11-28T08:26:08.885Z,20.40
2022-11-28T08:28:35.974Z,22.90
2022-11-28T08:31:33.222Z,22.40
2022-11-28T08:34:01.971Z,18.85
2022-11-28T08:36:29.517Z,21.48
2022-11-28T08:39:16.557Z,26.40
2022-11-28T08:41:43.165Z,22.65
2022-11-28T08:44:09.515Z,20.60
2022-11-28T08:46:36.610Z,19.60
2022-11-28T08:49:04.590Z,19.45
2022-11-28T08:51:31.437Z,19.67
2022-11-28T08:53:59.720Z,20.75
2022-11-28T08:56:26.830Z,22.08
2022-11-28T08:58:53.386Z,24.23
2022-11-28T09:01:22.567Z,21.35
2022-11-28T09:03:50.005Z,20.55
2022-11-28T09:06:17.883Z,21.48
2022-11-28T09:08:45.082Z,21.35
2022-11-28T09:11:14.169Z,23.92
2022-11-28T09:13:40.859Z,20.65
2022-11-28T09:16:07.639Z,22.85
2022-11-28T09:18:34.378Z,19.92
2022-11-28T09:21:02.053Z,23.55
2022-11-28T09:23:29.211Z,21.60
2022-11-28T09:25:56.170Z,22.08
2022-11-28T09:28:23.763Z,22.45
2022-11-28T09:30:50.407Z,21.52
2022-11-28T09:33:16.796Z,22.50
2022-11-28T09:35:43.306Z,21.40
2022-11-28T09:38:09.670Z,25.08
2022-11-28T09:40:42.391Z,23.85
2022-11-28T09:43:16.947Z,22.45
2022-11-28T09:45:45.422Z,21.63
2022-11-28T09:48:30.204Z,19.60
2022-11-28T09:51:06.178Z,20.85
2022-11-28T09:53:44.897Z,21.85
2022-11-28T09:56:15.570Z,20.27
2022-11-28T09:58:57.817Z,21.63
2022-11-28T10:01:26.864Z,18.13
2022-11-28T10:04:02.917Z,22.08
2022-11-28T10:07:04.552Z,20.90
2022-11-28T10:09:46.988Z,23.10
2022-11-28T10:12:32.285Z,20.73
2022-11-28T10:15:14.135Z,21.63
2022-11-28T10:17:44.277Z,17.80
2022-11-28T10:20:32.980Z,20.70
2022-11-28T10:23:05.299Z,18.38
2022-11-28T10:25:51.195Z,22.35
2022-11-28T10:28:29.631Z,22.75
2022-11-28T10:31:12.301Z,18.70
2022-11-28T10:33:50.159Z,25.00
2022-11-28T10:36:28.143Z,23.15
2022-11-28T10:38:54.568Z,19.92
2022-11-28T10:41:28.719Z,21.35
2022-11-28T10:44:28.869Z,23.77
2022-11-28T10:47:05.754Z,21.20
2022-11-28T10:49:52.594Z,18.77
2022-11-28T10:52:57.002Z,18.90
2022-11-28T10:55:41.513Z,18.98
2022-11-28T10:58:15.343Z,20.05
2022-11-28T11:00:45.380Z,19.40
2022-11-28T11:03:15.365Z,22.52
2022-11-28T11:05:42.403Z,19.75
2022-11-28T11:08:08.748Z,23.73
2022-11-28T11:10:51.885Z,19.67
2022-11-28T11:13:24.861Z,18.48
2022-11-28T11:15:59.208Z,16.88
2022-11-28T11:18:28.645Z,19.58
2022-11-28T11:21:14.589Z,16.77
2022-11-28T11:23:41.567Z,22.33
2022-11-28T11:26:33.248Z,18.33
2022-11-28T11:29:01.494Z,23.30
2022-11-28T11:31:31.569Z,18.67
2022-11-28T11:34:15.655Z,19.20
2022-11-28T11:36:42.456Z,22.42
2022-11-28T11:39:12.257Z,19.80
2022-11-28T11:41:41.335Z,30.30
2022-11-28T11:44:13.618Z,22.02
2022-11-28T11:47:08.739Z,24.13
2022-11-28T11:49:44.331Z,20.77
2022-11-28T11:52:22.678Z,21.50
2022-11-28T11:54:57.228Z,23.00
2022-11-28T11:57:49.695Z,21.48
2022-11-28T12:00:21.146Z,19.40
2022-11-28T12:03:03.108Z,20.65
2022-11-28T12:06:12.723Z,24.25
2022-11-28T12:08:43.446Z,24.23
2022-11-28T12:11:31.419Z,23.90
2022-11-28T12:14:04.690Z,23.13
2022-11-28T12:16:50.471Z,19.15
2022-11-28T12:19:34.389Z,25.90
2022-11-28T12:22:25.757Z,23.38
2022-11-28T12:25:04.921Z,19.95
2022-11-28T12:27:53.464Z,19.73
2022-11-28T12:30:43.375Z,20.42
2022-11-28T12:33:20.727Z,22.27
2022-11-28T12:36:14.804Z,22.73
2022-11-28T12:39:18.374Z,23.90
2022-11-28T12:42:18.978Z,22.10
2022-11-28T12:45:07.111Z,23.92
2022-11-28T12:48:01.966Z,19.73
2022-11-28T12:50:35.537Z,22.77
2022-11-28T12:53:16.768Z,27.48
2022-11-28T12:55:52.426Z,25.05
2022-11-28T12:58:40.660Z,22.00
2022-11-28T13:01:53.257Z,28.35
2022-11-28T13:04:56.987Z,19.42
2022-11-28T13:07:51.950Z,19.92
2022-11-28T13:10:28.873Z,18.73
2022-11-28T13:13:06.680Z,20.10
2022-11-28T13:15:48.080Z,21.83
2022-11-28T13:18:28.848Z,25.27
2022-11-28T13:21:09.747Z,23.85
2022-11-28T13:23:50.988Z,23.27
2022-11-28T13:26:42.602Z,64.22
2022-11-28T13:29:12.037Z,26.25
2022-11-28T13:31:49.815Z,20.35
2022-11-28T13:34:18.218Z,20.08
2022-11-28T13:40:19.783Z,21.33
2022-11-28T13:43:06.556Z,17.48
2022-11-28T13:45:52.711Z,24.00
2022-11-28T13:49:06.145Z,17.95
2022-11-28T13:51:30.602Z,23.30
2022-11-28T13:54:16.900Z,21.08
2022-11-28T13:56:49.007Z,20.63
2022-11-28T13:59:25.947Z,23.27
2022-11-28T14:01:58.439Z,24.65
2022-11-28T14:04:27.787Z,24.17
2022-11-28T14:07:02.221Z,21.42
2022-11-28T14:09:47.682Z,24.15
2022-11-28T14:12:26.769Z,21.35
2022-11-28T14:15:01.492Z,23.83
2022-11-28T14:17:38.029Z,23.88
2022-11-28T14:20:24.359Z,26.00
2022-11-28T14:23:20.192Z,22.35
2022-11-28T14:25:50.035Z,25.40
2022-11-28T14:28:26.340Z,25.23
2022-11-28T14:31:31.032Z,21.80
2022-11-28T14:34:00.698Z,25.05
2022-11-28T14:36:33.940Z,21.75
2022-11-28T14:39:07.372Z,21.85
2022-11-28T14:42:03.627Z,24.98
2022-11-28T14:44:50.677Z,26.02
2022-11-28T14:47:42.933Z,22.65
2022-11-28T14:50:09.682Z,25.60
2022-11-28T14:52:41.700Z,25.25
2022-11-28T14:55:12.950Z,23.13
2022-11-28T14:57:58.510Z,23.17
2022-11-28T15:00:31.818Z,24.48
2022-11-28T15:03:37.817Z,21.02
2022-11-28T15:06:20.806Z,26.17
2022-11-28T15:09:00.097Z,24.92
2022-11-28T15:11:37.429Z,23.50
2022-11-28T15:14:22.757Z,22.70
2022-11-28T15:16:53.069Z,24.05
2022-11-28T15:19:30.627Z,24.83
2022-11-28T15:21:57.507Z,26.10
2022-11-28T15:24:33.097Z,23.98
2022-11-28T15:27:08.810Z,25.58
2022-11-28T15:29:36.733Z,32.60
2022-11-28T15:32:04.919Z,24.85
2022-11-28T15:34:34.201Z,27.92
2022-11-28T15:37:05.595Z,25.30
2022-11-28T15:39:35.770Z,27.90
2022-11-28T15:42:05.083Z,31.60
2022-11-28T15:44:32.318Z,24.48
2022-11-28T15:47:01.433Z,27.27
2022-11-28T15:49:32.788Z,27.65
2022-11-28T15:52:02.756Z,28.23
2022-11-28T15:54:36.801Z,26.23
2022-11-28T15:57:05.275Z,27.75
2022-11-28T15:59:32.952Z,26.50
2022-11-28T16:02:15.083Z,27.10
2022-11-28T16:04:44.100Z,28.58
2022-11-28T16:07:14.876Z,26.10
2022-11-28T16:09:53.613Z,27.15
2022-11-28T16:12:20.167Z,28.75
2022-11-28T16:14:46.964Z,29.30
2022-11-28T16:17:19.983Z,26.80
2022-11-28T16:19:46.630Z,28.40
2022-11-28T16:22:19.436Z,28.45
2022-11-28T16:24:48.966Z,28.48
2022-11-28T16:27:38.873Z,28.10
2022-11-28T16:30:24.056Z,28.45
2022-11-28T16:32:52.259Z,29.80
2022-11-28T16:35:31.994Z,29.10
2022-11-28T16:38:25.102Z,29.92
2022-11-28T16:40:58.673Z,30.58
2022-11-28T16:43:36.326Z,28.50
2022-11-28T16:46:06.655Z,29.70
2022-11-28T16:48:38.332Z,30.55
2022-11-28T16:51:10.797Z,29.40
2022-11-28T16:53:45.946Z,33.80
2022-11-28T16:56:24.449Z,30.95
2022-11-28T16:59:12.279Z,31.08
2022-11-28T17:01:39.486Z,28.20
2022-11-28T17:04:06.376Z,32.63
2022-11-28T17:06:37.302Z,27.52
2022-11-28T17:09:09.782Z,32.35
2022-11-28T17:11:39.780Z,30.80
2022-11-28T17:14:13.037Z,27.50
2022-11-28T17:16:41.472Z,30.38
2022-11-28T17:19:07.939Z,30.17
2022-11-28T17:21:40.572Z,32.97
2022-11-28T17:24:15.933Z,31.60
2022-11-28T17:26:42.386Z,29.23
2022-11-28T17:29:13.252Z,32.03
2022-11-28T17:31:42.103Z,33.78
2022-11-28T17:34:19.008Z,31.17
2022-11-28T17:36:45.696Z,33.55
2022-11-28T17:39:17.126Z,29.35
2022-11-28T17:41:44.413Z,31.27
2022-11-28T17:44:17.646Z,32.38
2022-11-28T17:46:44.111Z,30.92
2022-11-28T17:49:10.703Z,29.00
2022-11-28T17:51:37.699Z,32.10
2022-11-28T17:54:04.444Z,30.33
2022-11-28T17:56:32.382Z,27.98
2022-11-28T17:59:00.232Z,32.33
2022-11-28T18:01:29.204Z,36.15
2022-11-28T18:03:58.920Z,31.13
2022-11-28T18:06:25.474Z,29.92
2022-11-28T18:08:53.261Z,31.00
2022-11-28T18:11:20.477Z,29.75
2022-11-28T18:13:47.823Z,33.55
2022-11-28T18:16:17.242Z,32.55
2022-11-28T18:18:44.238Z,28.15
2022-11-28T18:21:11.254Z,28.60
2022-11-28T18:23:39.717Z,34.10
2022-11-28T18:26:13.102Z,31.15
2022-11-28T18:28:41.201Z,31.95
2022-11-28T18:31:29.101Z,28.27
2022-11-28T18:34:01.623Z,33.13
2022-11-28T18:36:32.289Z,30.55
2022-11-28T18:39:01.524Z,31.48
2022-11-28T18:41:28.991Z,27.23
2022-11-28T18:43:57.043Z,31.30
2022-11-28T18:46:25.148Z,31.50
2022-11-28T18:48:52.142Z,30.20
2022-11-28T18:51:27.611Z,30.92
2022-11-28T18:53:55.922Z,28.77
2022-11-28T18:56:23.437Z,31.52
2022-11-28T18:58:51.785Z,26.48
2022-11-28T19:01:28.204Z,29.30
2022-11-28T19:03:58.011Z,29.48
2022-11-28T19:06:24.818Z,34.80
2022-11-28T19:09:00.201Z,32.10
2022-11-28T19:11:29.284Z,29.33
2022-11-28T19:13:56.369Z,30.05
2022-11-28T19:16:35.147Z,28.60
2022-11-28T19:19:03.661Z,31.88
2022-11-28T19:21:32.779Z,29.17
2022-11-28T19:24:00.621Z,37.17
2022-11-28T19:26:30.471Z,38.78
2022-11-28T19:28:59.848Z,32.67
2022-11-28T19:31:29.329Z,29.25
2022-11-28T19:34:02.135Z,31.23
2022-11-28T19:36:33.063Z,32.45
2022-11-28T19:38:59.861Z,33.58
2022-11-28T19:41:28.069Z,29.55
2022-11-28T19:43:55.298Z,32.05
2022-11-28T19:46:21.974Z,31.05
2022-11-28T19:48:49.500Z,30.33
2022-11-28T19:51:15.986Z,33.90
2022-11-28T19:53:43.326Z,32.92
2022-11-28T19:56:16.931Z,31.10
2022-11-28T19:58:44.357Z,28.52
2022-11-28T20:01:15.303Z,29.92
2022-11-28T20:03:42.637Z,29.30
2022-11-28T20:06:10.967Z,32.70
2022-11-28T20:08:38.821Z,31.95
2022-11-28T20:11:13.043Z,36.80
2022-11-28T20:13:40.694Z,29.00
2022-11-28T20:16:08.815Z,31.73
2022-11-28T20:18:40.948Z,32.38
2022-11-28T20:21:19.320Z,31.27
2022-11-28T20:23:51.465Z,32.53
2022-11-28T20:26:20.148Z,33.17
2022-11-28T20:28:47.580Z,36.15
2022-11-28T20:31:31.686Z,33.35
2022-11-28T20:33:58.495Z,34.42
2022-11-28T20:36:26.515Z,32.17
2022-11-28T20:38:54.346Z,32.83
2022-11-28T20:41:22.797Z,33.90
2022-11-28T20:43:49.185Z,30.25
2022-11-28T20:46:21.901Z,33.75
2022-11-28T20:48:49.567Z,31.23
2022-11-28T20:51:19.134Z,36.17
2022-11-28T20:53:45.765Z,29.42
2022-11-28T20:56:18.283Z,30.65
2022-11-28T20:58:45.717Z,31.67
2022-11-28T21:01:17.897Z,30.98
2022-11-28T21:03:44.559Z,32.80
2022-11-28T21:06:12.183Z,34.60
2022-11-28T21:08:38.846Z,31.73
2022-11-28T21:11:11.210Z,31.42
2022-11-28T21:13:38.035Z,31.90
2022-11-28T21:16:06.944Z,33.17
2022-11-28T21:18:34.211Z,34.97
2022-11-28T21:21:10.493Z,32.00
2022-11-28T21:23:38.118Z,34.65
2022-11-28T21:26:15.836Z,31.88
2022-11-28T21:28:44.763Z,33.78
2022-11-28T21:31:14.071Z,30.42
2022-11-28T21:33:40.753Z,34.05
2022-11-28T21:36:08.061Z,33.58
2022-11-28T21:38:35.438Z,34.90
2022-11-28T21:41:02.178Z,32.83
2022-11-28T21:43:29.566Z,34.90
2022-11-28T21:46:07.137Z,30.75
2022-11-28T21:48:35.550Z,32.92
2022-11-28T21:51:03.587Z,33.25
2022-11-28T21:53:31.266Z,30.75
2022-11-28T21:56:03.242Z,34.55
2022-11-28T21:58:30.656Z,32.70
2022-11-28T22:01:02.734Z,35.10
2022-11-28T22:03:30.779Z,34.70
2022-11-28T22:06:21.876Z,33.50
2022-11-28T22:08:48.949Z,32.78
2022-11-28T22:11:15.948Z,34.78
2022-11-28T22:13:45.761Z,38.00
2022-11-28T22:16:16.589Z,34.65
2022-11-28T22:18:44.408Z,32.55
2022-11-28T22:21:43.383Z,33.83
2022-11-28T22:23:58.333Z,34.45
2022-11-28T22:26:24.859Z,32.22
2022-11-28T22:28:53.944Z,32.30
2022-11-28T22:31:22.796Z,33.35
2022-11-28T22:33:50.259Z,32.35
2022-11-28T22:36:19.058Z,34.47
2022-11-28T22:38:47.509Z,34.85
2022-11-28T22:41:20.791Z,36.47
2022-11-28T22:43:54.301Z,33.30
2022-11-28T22:46:20.886Z,34.90
2022-11-28T22:48:47.811Z,33.58
2022-11-28T22:51:22.785Z,38.38
2022-11-28T22:53:56.431Z,36.92
2022-11-28T22:56:26.866Z,37.97
2022-11-28T22:58:53.728Z,37.00
2022-11-28T23:01:24.042Z,37.00
2022-11-28T23:03:51.761Z,35.83
2022-11-28T23:06:20.964Z,34.33
2022-11-28T23:08:53.857Z,35.15
2022-11-28T23:11:23.606Z,36.42
2022-11-28T23:13:51.166Z,37.85
2022-11-28T23:16:19.619Z,41.28
2022-11-28T23:18:49.816Z,37.10
2022-11-28T23:21:17.355Z,41.80
2022-11-28T23:23:45.822Z,41.30
2022-11-28T23:26:18.194Z,40.10
2022-11-28T23:28:44.999Z,43.33
2022-11-28T23:31:17.823Z,41.17
2022-11-28T23:33:45.835Z,42.95
2022-11-28T23:36:16.701Z,40.50
2022-11-28T23:38:44.477Z,43.70
2022-11-28T23:41:11.878Z,40.58
2022-11-28T23:43:38.843Z,36.63
2022-11-28T23:46:06.337Z,39.53
2022-11-28T23:48:33.529Z,43.35
2022-11-28T23:50:59.959Z,41.72
2022-11-28T23:53:26.605Z,43.72
2022-11-28T23:55:53.049Z,44.08
2022-11-28T23:58:19.584Z,44.50
